Time;durP1;ratioP1;P1;durP2;ratioP2;P2;SDS_P1;SDS_P2;PMS_P1;PMS_P2;Temp;Humidity;BMP_temperature;BMP_pressure;BME280_temperature;BME280_humidity;BME280_pressure;Samples;Min_cycle;Max_cycle;Signal;HPM_P1;HPM_P2
2022/02/22 00:00:07;;;;;;;48.00;8.07;;;;;;;9.02;72.23;101847.31;5004705;28;20050;-70
2022/02/22 00:02:39;;;;;;;45.63;8.73;;;;;;;8.89;72.86;101832.22;5006864;28;20043;-69
2022/02/22 00:05:11;;;;;;;57.15;8.32;;;;;;;8.53;73.99;101830.56;5006055;28;20647;-70
2022/02/22 00:07:39;;;;;;;56.22;8.57;;;;;;;8.79;74.92;101834.13;5008913;28;22116;-70
2022/02/22 00:10:07;;;;;;;49.80;9.32;;;;;;;8.69;73.72;101840.47;5009859;28;20045;-70
2022/02/22 00:12:35;;;;;;;43.60;8.95;;;;;;;8.49;74.55;101847.84;5004720;28;20054;-70
2022/02/22 00:15:03;;;;;;;54.70;9.13;;;;;;;8.58;74.77;101849.78;5010206;28;20508;-71
2022/02/22 00:17:34;;;;;;;62.33;9.50;;;;;;;8.61;75.07;101843.72;5009194;28;20061;-69
2022/02/22 00:20:03;;;;;;;51.15;8.60;;;;;;;8.75;74.43;101842.09;5008043;28;20053;-70
2022/02/22 00:22:30;;;;;;;61.58;8.95;;;;;;;8.78;75.01;101836.06;5002909;28;20427;-69
2022/02/22 00:24:58;;;;;;;52.05;8.93;;;;;;;8.87;74.44;101839.09;5006761;28;20054;-70
2022/02/22 00:27:25;;;;;;;53.45;8.93;;;;;;;8.61;74.50;101851.16;5009815;28;20053;-70
2022/02/22 00:29:54;;;;;;;53.60;8.50;;;;;;;8.30;75.91;101849.47;5011200;28;20064;-71
2022/02/22 00:32:21;;;;;;;56.80;9.05;;;;;;;8.30;76.11;101850.25;5010558;28;20050;-69
2022/02/22 00:34:49;;;;;;;53.28;8.40;;;;;;;8.73;75.99;101859.97;5008358;28;20429;-70
2022/02/22 00:37:16;;;;;;;54.70;8.77;;;;;;;8.48;75.59;101869.00;5011308;28;20054;-70
2022/02/22 00:39:44;;;;;;;54.28;9.20;;;;;;;8.55;76.30;101866.81;5006017;28;20049;-72
2022/02/22 00:42:11;;;;;;;44.50;8.32;;;;;;;8.57;75.78;101863.78;5010154;28;20413;-70
2022/02/22 00:44:38;;;;;;;62.40;9.73;;;;;;;8.57;75.99;101861.88;5010036;28;20069;-71
2022/02/22 00:47:06;;;;;;;61.35;9.75;;;;;;;8.45;75.50;101868.72;5005304;28;20405;-70
2022/02/22 00:49:34;;;;;;;54.17;8.45;;;;;;;8.44;76.25;101856.88;5011370;28;20050;-70
2022/02/22 00:52:01;;;;;;;53.75;8.93;;;;;;;8.25;76.14;101847.50;5005454;28;20049;-69
2022/02/22 00:54:28;;;;;;;56.22;8.82;;;;;;;8.17;76.79;101853.50;5003965;28;20041;-70
2022/02/22 00:56:56;;;;;;;57.10;8.60;;;;;;;8.14;77.28;101864.19;5008838;28;20428;-71
2022/02/22 00:59:23;;;;;;;52.85;8.85;;;;;;;8.28;78.15;101857.94;5004535;28;20041;-69
2022/02/22 01:01:51;;;;;;;50.67;7.13;;;;;;;8.26;77.55;101853.84;5006030;28;20441;-70
2022/02/22 01:04:18;;;;;;;46.35;8.50;;;;;;;8.20;77.27;101863.94;5003881;28;20054;-70
2022/02/22 01:06:46;;;;;;;59.90;9.98;;;;;;;7.95;77.93;101864.66;5004799;28;20053;-70
2022/02/22 01:09:14;;;;;;;51.35;8.90;;;;;;;7.87;78.84;101867.09;4993346;28;20061;-70
2022/02/22 01:11:42;;;;;;;56.67;8.02;;;;;;;8.25;78.98;101874.13;5007376;28;20046;-71
2022/02/22 01:14:10;;;;;;;55.33;10.15;;;;;;;8.26;77.33;101881.28;5021864;28;20053;-70
2022/02/22 01:16:37;;;;;;;60.25;9.70;;;;;;;8.47;77.83;101878.31;5002415;28;20045;-70
2022/02/22 01:19:05;;;;;;;53.60;9.52;;;;;;;8.43;76.64;101862.66;5010068;28;20409;-70
2022/02/22 01:21:32;;;;;;;52.38;8.10;;;;;;;8.35;76.89;101885.97;5008091;28;20050;-70
2022/02/22 01:24:02;;;;;;;59.72;8.75;;;;;;;8.26;77.46;101890.34;5006840;28;20042;-69
2022/02/22 01:26:30;;;;;;;62.08;9.77;;;;;;;8.13;77.62;101893.56;5008005;28;20192;-70
2022/02/22 01:28:58;;;;;;;55.75;7.90;;;;;;;8.11;77.78;101892.19;5021077;28;20050;-71
2022/02/22 01:31:26;;;;;;;56.42;9.45;;;;;;;8.17;77.29;101886.44;4992438;28;20053;-69
2022/02/22 01:33:54;;;;;;;48.58;8.63;;;;;;;8.05;77.35;101888.59;5006210;28;20046;-71
2022/02/22 01:36:22;;;;;;;61.13;10.70;;;;;;;8.11;78.40;101889.44;5012676;28;20049;-71
2022/02/22 01:38:51;;;;;;;46.78;9.23;;;;;;;8.14;77.52;101895.22;5001216;28;20058;-70
2022/02/22 01:41:22;;;;;;;55.40;8.50;;;;;;;8.48;76.61;101884.63;5009678;28;20053;-71
2022/02/22 01:43:50;;;;;;;51.88;8.98;;;;;;;8.10;76.84;101883.13;5007299;28;20046;-71
2022/02/22 01:46:17;;;;;;;55.40;8.43;;;;;;;7.96;78.38;101888.28;5011748;28;20060;-69
2022/02/22 01:48:45;;;;;;;55.75;9.15;;;;;;;8.02;78.20;101889.94;5021499;28;20065;-70
2022/02/22 01:51:12;;;;;;;50.50;9.27;;;;;;;7.73;78.21;101888.72;5025168;28;20054;-71
2022/02/22 01:53:39;;;;;;;66.38;9.75;;;;;;;7.89;78.17;101893.19;5012840;28;20058;-70
2022/02/22 01:56:11;;;;;;;65.95;10.10;;;;;;;7.72;78.25;101881.56;5010084;28;20046;-71
2022/02/22 01:58:39;;;;;;;49.97;8.63;;;;;;;7.76;78.54;101888.16;5007585;28;20186;-70
2022/02/22 02:01:07;;;;;;;54.90;10.32;;;;;;;7.65;79.44;101882.91;5013066;28;20053;-70
2022/02/22 02:03:36;;;;;;;61.08;9.65;;;;;;;7.69;79.69;101887.56;5011680;28;20064;-70
2022/02/22 02:06:03;;;;;;;56.20;8.35;;;;;;;7.97;79.66;101878.09;5011308;28;20045;-70
2022/02/22 02:08:31;;;;;;;58.25;9.77;;;;;;;7.87;78.57;101880.81;5009203;28;20050;-70
2022/02/22 02:10:58;;;;;;;56.95;9.68;;;;;;;7.93;77.90;101882.50;5011171;28;20057;-70
2022/02/22 02:13:27;;;;;;;58.80;10.10;;;;;;;8.12;78.00;101885.59;5009500;28;20057;-70
2022/02/22 02:15:54;;;;;;;61.15;9.45;;;;;;;7.96;77.79;101882.78;5007947;28;20050;-71
2022/02/22 02:18:21;;;;;;;50.47;8.13;;;;;;;7.87;77.98;101900.00;5008353;28;20053;-70
2022/02/22 02:20:49;;;;;;;58.63;8.88;;;;;;;8.04;77.75;101897.91;5009891;28;20524;-70
2022/02/22 02:23:17;;;;;;;50.38;8.48;;;;;;;8.15;76.85;101898.75;5009445;28;20472;-70
2022/02/22 02:25:45;;;;;;;57.17;9.48;;;;;;;7.88;77.64;101902.50;5009199;28;20054;-70
2022/02/22 02:28:12;;;;;;;59.42;9.70;;;;;;;7.98;77.73;101907.22;5009280;28;20053;-70
2022/02/22 02:30:40;;;;;;;52.53;9.27;;;;;;;8.09;77.15;101905.34;5004829;28;20050;-70
2022/02/22 02:33:07;;;;;;;55.60;9.15;;;;;;;7.72;77.69;101910.91;5007325;28;20061;-71
2022/02/22 02:35:35;;;;;;;56.63;8.50;;;;;;;7.80;77.97;101910.41;5013631;28;20076;-70
2022/02/22 02:38:02;;;;;;;63.35;9.60;;;;;;;7.70;78.02;101910.34;4996860;28;20053;-70
2022/02/22 02:40:40;;;;;;;59.72;10.00;;;;;;;7.57;78.36;101910.81;5009354;28;20038;-70
2022/02/22 02:43:08;;;;;;;65.20;9.45;;;;;;;7.53;78.83;101910.50;5010828;28;20053;-70
2022/02/22 02:45:36;;;;;;;61.15;9.43;;;;;;;7.59;78.95;101911.38;5009223;28;20054;-69
2022/02/22 02:48:03;;;;;;;46.60;8.60;;;;;;;7.78;78.58;101907.09;5011991;28;20050;-71
2022/02/22 02:50:31;;;;;;;50.67;9.35;;;;;;;7.61;78.54;101920.16;5011937;28;20057;-70
2022/02/22 02:52:58;;;;;;;55.90;8.98;;;;;;;7.65;79.22;101922.09;5012531;28;20110;-70
2022/02/22 02:55:26;;;;;;;55.35;9.52;;;;;;;7.59;79.21;101923.16;5009048;28;20061;-70
2022/02/22 02:57:53;;;;;;;55.17;8.48;;;;;;;7.54;79.31;101930.53;5006211;28;20053;-70
2022/02/22 03:00:20;;;;;;;59.22;9.23;;;;;;;7.31;81.16;101933.63;5005541;28;20054;-69
2022/02/22 03:02:48;;;;;;;61.55;11.07;;;;;;;7.29;81.39;101933.91;5011401;28;20076;-71
2022/02/22 03:05:15;;;;;;;57.00;9.43;;;;;;;7.33;81.12;101939.69;5008314;28;20049;-70
2022/02/22 03:07:42;;;;;;;52.45;8.90;;;;;;;7.39;81.15;101944.13;5010658;28;20050;-70
2022/02/22 03:10:09;;;;;;;59.67;8.98;;;;;;;7.30;80.62;101946.53;5008550;28;20062;-70
2022/02/22 03:12:37;;;;;;;60.22;8.70;;;;;;;7.46;80.71;101947.47;5004911;28;20408;-69
2022/02/22 03:15:05;;;;;;;54.65;9.25;;;;;;;7.47;80.48;101935.41;5005781;28;20065;-71
2022/02/22 03:17:33;;;;;;;62.13;9.10;;;;;;;7.59;80.52;101930.56;5011576;28;20064;-70
2022/02/22 03:20:00;;;;;;;59.38;9.45;;;;;;;7.58;80.10;101932.47;5008491;28;20058;-72
2022/02/22 03:22:27;;;;;;;59.78;10.85;;;;;;;7.63;80.19;101928.94;5011811;28;20509;-71
2022/02/22 03:24:54;;;;;;;60.08;9.00;;;;;;;7.57;80.12;101936.31;5006231;28;20046;-70
2022/02/22 03:27:22;;;;;;;60.78;10.18;;;;;;;7.49;80.11;101939.56;5007710;28;20046;-69
2022/02/22 03:29:49;;;;;;;61.35;9.48;;;;;;;7.42;80.75;101936.22;5025776;28;20056;-69
2022/02/22 03:32:16;;;;;;;49.90;8.50;;;;;;;7.59;79.95;101931.41;5004286;28;20048;-70
2022/02/22 03:34:44;;;;;;;54.78;8.82;;;;;;;7.61;80.43;101940.19;5012138;28;20050;-70
2022/02/22 03:37:11;;;;;;;65.97;10.35;;;;;;;7.75;80.72;101937.81;5009730;28;20056;-70
2022/02/22 03:39:38;;;;;;;58.70;9.73;;;;;;;7.75;80.37;101943.28;5010375;28;20060;-70
2022/02/22 03:42:05;;;;;;;51.33;9.68;;;;;;;7.75;80.41;101944.13;5006690;28;20046;-70
2022/02/22 03:44:33;;;;;;;64.03;9.45;;;;;;;7.70;80.56;101937.78;5003781;28;20390;-71
2022/02/22 03:47:00;;;;;;;47.90;9.38;;;;;;;7.73;79.78;101923.53;5010449;28;20057;-70
2022/02/22 03:49:27;;;;;;;64.07;9.48;;;;;;;7.57;79.90;101911.63;5009734;28;20414;-70
2022/02/22 03:51:54;;;;;;;57.67;9.82;;;;;;;7.91;80.15;101923.09;5008197;28;20054;-71
2022/02/22 03:54:22;;;;;;;66.32;9.52;;;;;;;7.89;79.02;101920.63;5010309;28;20048;-69
2022/02/22 03:56:49;;;;;;;65.18;10.13;;;;;;;7.72;78.89;101919.94;5002819;28;20065;-69
2022/02/22 03:59:16;;;;;;;56.15;9.20;;;;;;;7.81;79.90;101921.09;5008459;28;20069;-69
2022/02/22 04:01:45;;;;;;;51.08;8.70;;;;;;;7.64;79.83;101917.72;5004279;28;20051;-70
2022/02/22 04:04:12;;;;;;;62.58;10.00;;;;;;;7.86;79.73;101912.91;5011051;28;20624;-70
2022/02/22 04:06:40;;;;;;;55.97;9.43;;;;;;;7.82;79.43;101914.53;5006696;28;20057;-69
2022/02/22 04:09:08;;;;;;;68.50;10.23;;;;;;;7.71;79.39;101923.78;5009470;28;20053;-71
2022/02/22 04:11:35;;;;;;;52.03;8.60;;;;;;;7.74;79.83;101922.44;5005870;28;20042;-70
2022/02/22 04:14:03;;;;;;;69.18;10.57;;;;;;;7.66;79.71;101920.19;4992352;28;20053;-70
2022/02/22 04:16:31;;;;;;;62.53;9.27;;;;;;;7.45;79.86;101921.97;5007035;28;20053;-69
2022/02/22 04:18:58;;;;;;;53.05;10.15;;;;;;;7.49;80.07;101919.53;4994133;28;20058;-71
2022/02/22 04:21:25;;;;;;;51.35;9.20;;;;;;;7.60;80.24;101933.03;5007437;28;20064;-69
2022/02/22 04:23:52;;;;;;;58.78;9.82;;;;;;;7.85;79.24;101937.84;5007536;28;20611;-70
2022/02/22 04:26:20;;;;;;;56.75;9.70;;;;;;;7.52;78.88;101932.69;5003627;28;20798;-71
2022/02/22 04:28:51;;;;;;;65.75;8.90;;;;;;;7.51;79.95;101936.56;5009273;28;20041;-70
2022/02/22 04:31:18;;;;;;;64.45;9.23;;;;;;;7.77;80.38;101949.34;5008976;28;20519;-69
2022/02/22 04:33:45;;;;;;;56.25;9.85;;;;;;;7.75;79.45;101957.84;5010850;28;20062;-70
2022/02/22 04:36:12;;;;;;;54.47;9.25;;;;;;;7.73;78.87;101945.47;5004431;28;20054;-70
2022/02/22 04:38:40;;;;;;;67.03;9.88;;;;;;;7.56;79.78;101948.38;5007327;28;20053;-71
2022/02/22 04:41:07;;;;;;;67.93;8.82;;;;;;;7.50;79.75;101946.69;5009213;28;20049;-70
2022/02/22 04:43:34;;;;;;;57.95;10.15;;;;;;;7.94;79.14;101948.06;5008841;28;20050;-70
2022/02/22 04:46:01;;;;;;;64.85;10.35;;;;;;;7.59;78.65;101957.97;5006619;28;20042;-70
2022/02/22 04:48:29;;;;;;;72.55;10.07;;;;;;;7.37;79.40;101954.53;5002782;28;21650;-68
2022/02/22 04:50:56;;;;;;;55.47;9.43;;;;;;;7.34;79.75;101957.81;5003874;28;20084;-71
2022/02/22 04:53:23;;;;;;;61.22;9.38;;;;;;;7.48;79.35;101948.03;5006855;28;20046;-71
2022/02/22 04:55:50;;;;;;;55.60;8.80;;;;;;;7.61;79.44;101953.91;5007056;28;20050;-71
2022/02/22 04:58:18;;;;;;;60.40;10.65;;;;;;;7.62;78.87;101949.22;5006299;28;20058;-71
2022/02/22 05:00:47;;;;;;;66.57;10.38;;;;;;;7.74;78.26;101953.41;5007498;28;20046;-70
2022/02/22 05:03:14;;;;;;;57.83;9.32;;;;;;;7.69;77.40;101960.78;5008750;28;20046;-70
2022/02/22 05:05:42;;;;;;;59.85;10.25;;;;;;;7.58;78.18;101956.34;5009474;28;20050;-70
2022/02/22 05:08:10;;;;;;;65.20;10.80;;;;;;;7.49;79.04;101957.91;5007955;28;20061;-70
2022/02/22 05:10:37;;;;;;;52.70;8.77;;;;;;;7.69;78.26;101963.53;5019719;28;20061;-70
2022/02/22 05:13:04;;;;;;;78.13;10.93;;;;;;;7.72;77.89;101961.09;5007758;28;20037;-70
2022/02/22 05:15:33;;;;;;;54.13;9.32;;;;;;;7.64;77.76;101960.75;5006831;28;20049;-69
2022/02/22 05:18:04;;;;;;;57.20;8.77;;;;;;;7.81;77.62;101948.53;5008105;28;20047;-71
2022/02/22 05:20:31;;;;;;;59.60;9.82;;;;;;;7.73;77.64;101960.00;5008730;28;20053;-69
2022/02/22 05:22:59;;;;;;;56.60;9.73;;;;;;;7.96;76.93;101950.53;5006405;28;20056;-70
2022/02/22 05:25:26;;;;;;;58.17;8.65;;;;;;;7.90;77.71;101951.59;5009577;28;20057;-70
2022/02/22 05:27:54;;;;;;;54.90;10.40;;;;;;;7.97;76.49;101955.75;5005492;28;20049;-69
2022/02/22 05:30:21;;;;;;;60.80;9.75;;;;;;;7.85;77.01;101948.81;5009874;28;20046;-70
2022/02/22 05:32:48;;;;;;;57.83;8.20;;;;;;;7.77;77.60;101949.34;5009613;28;20042;-68
2022/02/22 05:35:15;;;;;;;53.70;9.60;;;;;;;7.82;77.19;101947.47;5006399;28;20050;-70
2022/02/22 05:37:43;;;;;;;57.35;9.73;;;;;;;7.91;76.46;101954.06;5004937;28;20049;-70
2022/02/22 05:40:11;;;;;;;48.25;8.88;;;;;;;7.82;76.76;101943.88;5005917;28;20053;-69
2022/02/22 05:42:38;;;;;;;54.40;8.38;;;;;;;7.94;76.73;101955.47;5006938;28;20057;-70
2022/02/22 05:45:06;;;;;;;59.30;8.90;;;;;;;7.90;76.57;101954.34;5007856;28;20054;-70
2022/02/22 05:47:33;;;;;;;64.05;9.73;;;;;;;7.88;76.50;101956.50;5003161;28;20057;-70
2022/02/22 05:50:00;;;;;;;55.72;9.13;;;;;;;8.03;76.15;101956.63;5009585;28;20050;-70
2022/02/22 05:52:28;;;;;;;56.85;9.43;;;;;;;8.17;75.87;101949.56;5005196;28;20076;-69
2022/02/22 05:54:55;;;;;;;57.63;10.75;;;;;;;8.23;74.71;101945.72;5007123;28;20818;-70
2022/02/22 05:57:26;;;;;;;63.50;10.32;;;;;;;8.21;75.23;101945.16;5007413;28;20548;-71
2022/02/22 05:59:53;;;;;;;55.72;9.13;;;;;;;8.23;75.34;101942.97;5008257;28;20058;-70
2022/02/22 06:02:20;;;;;;;64.35;9.25;;;;;;;8.11;75.20;101938.84;5008161;28;20746;-69
2022/02/22 06:04:48;;;;;;;66.22;10.27;;;;;;;8.22;75.71;101946.84;5009939;28;20050;-69
2022/02/22 06:07:20;;;;;;;56.78;9.15;;;;;;;8.27;74.87;101929.56;5009718;28;20065;-70
2022/02/22 06:09:47;;;;;;;50.08;10.10;;;;;;;8.26;75.24;101926.03;5005306;28;20057;-69
2022/02/22 06:12:18;;;;;;;54.50;9.52;;;;;;;8.36;75.06;101920.56;5006629;28;20045;-70
2022/02/22 06:14:45;;;;;;;61.95;11.25;;;;;;;8.25;75.21;101924.38;5005663;28;20042;-69
2022/02/22 06:17:12;;;;;;;51.17;9.23;;;;;;;8.32;74.78;101922.19;5005935;28;20061;-71
2022/02/22 06:19:40;;;;;;;61.60;9.27;;;;;;;8.47;74.88;101932.41;5015344;28;20054;-70
2022/02/22 06:22:07;;;;;;;53.22;8.55;;;;;;;8.47;74.44;101926.91;5026983;28;20060;-69
2022/02/22 06:24:35;;;;;;;65.65;10.05;;;;;;;8.24;74.96;101928.22;5024119;28;20049;-70
2022/02/22 06:27:02;;;;;;;67.32;10.50;;;;;;;8.27;74.61;101935.06;5018692;28;20054;-69
2022/02/22 06:29:30;;;;;;;61.28;10.82;;;;;;;8.21;74.75;101933.38;5021818;28;20054;-69
2022/02/22 06:31:58;;;;;;;58.63;9.25;;;;;;;8.12;75.14;101930.31;5008574;28;20054;-70
2022/02/22 06:34:25;;;;;;;59.05;9.30;;;;;;;8.35;74.72;101935.38;5026522;28;20049;-70
2022/02/22 06:36:53;;;;;;;56.67;8.77;;;;;;;8.30;74.76;101931.81;5018917;28;20058;-71
2022/02/22 06:39:20;;;;;;;50.15;8.82;;;;;;;8.45;74.41;101935.44;5028901;28;20053;-69
2022/02/22 06:41:47;;;;;;;53.95;8.48;;;;;;;8.42;74.70;101930.47;5024921;28;20580;-69
2022/02/22 06:44:15;;;;;;;68.40;10.43;;;;;;;8.17;75.27;101929.50;5017735;28;20053;-70
2022/02/22 06:46:42;;;;;;;56.80;8.75;;;;;;;8.24;75.59;101938.34;5015937;28;20065;-69
2022/02/22 06:49:10;;;;;;;55.28;8.48;;;;;;;8.33;75.51;101947.75;5030106;28;20508;-70
2022/02/22 06:51:37;;;;;;;67.95;10.65;;;;;;;8.47;74.99;101935.97;5027171;28;20160;-70
2022/02/22 06:54:04;;;;;;;58.25;9.68;;;;;;;8.36;75.01;101949.94;5024998;28;20049;-70
2022/02/22 06:56:32;;;;;;;71.88;10.38;;;;;;;8.62;74.57;101955.25;5016421;28;20057;-68
2022/02/22 06:58:59;;;;;;;64.35;10.93;;;;;;;8.64;74.37;101946.75;5015178;28;20053;-68
2022/02/22 07:01:26;;;;;;;56.75;9.60;;;;;;;8.62;74.15;101949.75;5017929;28;20062;-67
2022/02/22 07:03:53;;;;;;;56.13;9.63;;;;;;;8.82;77.08;101965.47;5014839;28;20049;-68
2022/02/22 07:06:21;;;;;;;50.58;9.73;;;;;;;9.23;77.65;101961.66;5028624;28;20061;-68
2022/02/22 07:08:48;;;;;;;51.60;7.70;;;;;;;9.12;73.52;101956.44;5006973;28;20045;-67
2022/02/22 07:11:15;;;;;;;63.08;11.55;;;;;;;9.18;72.94;101955.34;5035410;28;20404;-69
2022/02/22 07:13:43;;;;;;;63.83;12.07;;;;;;;8.99;72.36;101952.31;5034863;28;20048;-67
2022/02/22 07:16:13;;;;;;;60.17;10.02;;;;;;;8.82;72.77;101947.03;5019965;28;20046;-70
2022/02/22 07:18:40;;;;;;;;;;;;;;;8.88;72.97;101951.47;5019448;28;20046;-68
2022/02/22 07:21:07;;;;;;;65.38;17.25;;;;;;;8.86;72.74;101944.56;5016716;28;20292;-69
2022/02/22 07:23:36;;;;;;;51.90;9.00;;;;;;;8.83;72.85;101945.13;5027368;28;20053;-68
2022/02/22 07:26:04;;;;;;;56.70;9.55;;;;;;;9.13;72.49;101944.34;5021865;28;20054;-66
2022/02/22 07:28:31;;;;;;;51.95;8.85;;;;;;;8.90;72.75;101954.78;5022592;28;20050;-68
2022/02/22 07:30:58;;;;;;;55.83;8.82;;;;;;;9.06;72.68;101939.13;5019689;28;20061;-67
2022/02/22 07:33:26;;;;;;;66.38;10.52;;;;;;;8.92;72.90;101944.34;5015496;28;20054;-68
2022/02/22 07:35:53;;;;;;;48.05;9.63;;;;;;;8.94;72.82;101952.31;5022850;28;20054;-66
2022/02/22 07:38:20;;;;;;;55.28;12.48;;;;;;;8.81;72.98;101955.56;5034139;28;20058;-67
2022/02/22 07:40:48;;;;;;;63.90;14.13;;;;;;;8.86;73.07;101972.06;5025997;28;20444;-67
2022/02/22 07:43:15;;;;;;;49.20;8.20;;;;;;;8.70;73.25;101962.94;5016882;28;20045;-66
2022/02/22 07:45:43;;;;;;;55.80;9.55;;;;;;;8.82;73.46;101952.53;5020247;28;20046;-67
2022/02/22 07:48:10;;;;;;;56.58;9.45;;;;;;;9.17;72.31;101959.19;5026955;28;20076;-66
2022/02/22 07:50:38;;;;;;;56.65;11.48;;;;;;;9.30;71.83;101953.16;5001422;28;20061;-66
2022/02/22 07:53:05;;;;;;;49.42;9.07;;;;;;;9.34;71.78;101948.75;5014742;28;20041;-66
2022/02/22 07:55:33;;;;;;;55.97;9.82;;;;;;;9.51;70.76;101944.63;5021744;28;20420;-67
2022/02/22 07:58:00;;;;;;;58.50;9.30;;;;;;;9.55;70.92;101953.16;5019380;28;20049;-66
2022/02/22 08:00:27;;;;;;;39.58;8.52;;;;;;;9.59;70.89;101949.56;5020536;28;20072;-66
2022/02/22 08:02:55;;;;;;;46.85;9.60;;;;;;;9.45;71.22;101942.97;5015411;28;20046;-66
2022/02/22 08:05:23;;;;;;;58.35;9.63;;;;;;;9.28;71.58;101944.34;5021924;28;20397;-66
2022/02/22 08:07:51;;;;;;;58.20;8.82;;;;;;;9.55;71.74;101956.72;5015876;28;20053;-66
2022/02/22 08:10:23;;;;;;;52.45;10.65;;;;;;;9.45;71.90;101942.97;5010926;28;20046;-67
2022/02/22 08:12:51;;;;;;;59.03;12.98;;;;;;;9.50;72.41;101947.66;5006611;28;20054;-66
2022/02/22 08:15:19;;;;;;;48.83;10.60;;;;;;;9.57;72.54;101953.69;5021290;28;20052;-69
2022/02/22 08:17:46;;;;;;;52.30;8.90;;;;;;;9.33;72.93;101950.66;5033390;28;20053;-67
2022/02/22 08:20:13;;;;;;;61.22;9.77;;;;;;;9.30;73.35;101950.41;5017896;28;20049;-68
2022/02/22 08:22:41;;;;;;;62.17;15.60;;;;;;;9.51;73.27;101938.28;5025593;28;20041;-66
2022/02/22 08:25:09;;;;;;;63.75;10.95;;;;;;;9.43;73.45;101939.66;4998617;28;20050;-66
2022/02/22 08:27:38;;;;;;;47.05;8.45;;;;;;;9.38;73.41;101938.88;5014480;28;20053;-67
2022/02/22 08:30:06;;;;;;;47.33;8.68;;;;;;;9.34;73.63;101937.75;5031599;28;20049;-67
2022/02/22 08:32:34;;;;;;;50.67;8.32;;;;;;;9.50;73.61;101931.16;5017253;28;20050;-67
2022/02/22 08:35:02;;;;;;;55.17;11.68;;;;;;;9.37;73.51;101935.28;5029796;28;20048;-68
2022/02/22 08:37:29;;;;;;;63.90;16.35;;;;;;;9.43;74.11;101942.41;5026592;28;20444;-67
2022/02/22 08:39:57;;;;;;;65.15;13.77;;;;;;;9.57;73.20;101934.44;5017981;28;20073;-66
2022/02/22 08:42:24;;;;;;;53.58;8.73;;;;;;;9.58;73.59;101927.81;5027645;28;20061;-64
2022/02/22 08:45:12;;;;;;;57.15;10.25;;;;;;;9.69;73.33;101929.47;5030910;28;20050;-67
2022/02/22 08:47:39;;;;;;;47.70;8.38;;;;;;;9.83;73.31;101919.53;5025080;28;20064;-67
2022/02/22 08:50:07;;;;;;;52.08;7.75;;;;;;;10.05;72.96;101898.00;5027008;28;20053;-66
2022/02/22 08:52:34;;;;;;;53.28;8.45;;;;;;;10.03;73.33;101906.53;5017410;28;20058;-67
2022/02/22 08:55:02;;;;;;;55.63;10.02;;;;;;;9.99;73.68;101908.19;5014252;28;20050;-66
2022/02/22 08:57:41;;;;;;;50.80;8.18;;;;;;;9.74;74.97;101900.03;5023888;28;20401;-67
2022/02/22 09:00:10;;;;;;;40.97;8.35;;;;;;;9.67;75.99;101913.25;5021989;28;20054;-66
2022/02/22 09:02:39;;;;;;;55.60;9.20;;;;;;;9.85;76.09;101912.63;5014760;28;20485;-67
2022/02/22 09:05:11;;;;;;;47.33;8.02;;;;;;;10.04;75.67;101910.13;5028285;28;20042;-66
2022/02/22 09:07:39;;;;;;;46.72;8.13;;;;;;;9.94;76.33;101910.13;5014085;28;20056;-66
2022/02/22 09:10:07;;;;;;;47.63;8.25;;;;;;;9.85;77.18;101915.38;5029326;28;20046;-66
2022/02/22 09:12:35;;;;;;;44.10;8.52;;;;;;;10.18;76.17;101887.22;5027865;28;20053;-66
2022/02/22 09:15:07;;;;;;;44.75;8.40;;;;;;;10.18;76.64;101883.66;5006386;28;20053;-65
2022/02/22 09:17:34;;;;;;;41.83;7.20;;;;;;;10.45;75.78;101877.72;5017151;28;20049;-65
2022/02/22 09:20:03;;;;;;;43.80;8.20;;;;;;;10.42;75.18;101890.16;5023868;28;20523;-69
2022/02/22 09:22:31;;;;;;;44.13;8.50;;;;;;;10.30;75.94;101875.06;5016653;28;20057;-67
2022/02/22 09:25:00;;;;;;;48.60;8.07;;;;;;;10.64;76.06;101876.78;5013113;28;20164;-66
2022/02/22 09:27:27;;;;;;;46.65;6.95;;;;;;;10.54;74.80;101879.59;5032881;28;20061;-65
2022/02/22 09:29:55;;;;;;;44.58;7.20;;;;;;;10.39;75.41;101881.63;5029303;28;20397;-66
2022/02/22 09:32:25;;;;;;;38.08;7.68;;;;;;;10.47;75.48;101881.84;4995329;28;20515;-65
2022/02/22 09:34:53;;;;;;;52.20;8.25;;;;;;;10.30;75.57;101881.41;5027270;28;20473;-65
2022/02/22 09:37:21;;;;;;;48.67;8.02;;;;;;;10.30;75.33;101881.41;5032019;28;20048;-67
2022/02/22 09:39:48;;;;;;;41.33;7.80;;;;;;;10.45;75.60;101877.72;5018979;28;20060;-65
2022/02/22 09:42:15;;;;;;;40.53;7.60;;;;;;;10.72;74.92;101869.84;5020615;28;20057;-66
2022/02/22 09:44:43;;;;;;;41.08;8.00;;;;;;;10.56;74.43;101873.81;5007488;28;20042;-66
2022/02/22 09:47:12;;;;;;;44.97;7.45;;;;;;;10.67;74.34;101869.88;5013582;28;20512;-67
2022/02/22 09:49:40;;;;;;;55.92;7.45;;;;;;;10.80;73.91;101861.78;5018660;28;20413;-65
2022/02/22 09:52:07;;;;;;;56.90;7.63;;;;;;;10.78;74.00;101872.28;5009740;28;20038;-67
2022/02/22 09:54:35;;;;;;;39.35;7.80;;;;;;;10.83;74.03;101860.38;5016928;28;20458;-66
2022/02/22 09:57:02;;;;;;;43.33;7.72;;;;;;;11.20;72.92;101864.22;5020823;28;20053;-67
2022/02/22 09:59:31;;;;;;;34.28;7.55;;;;;;;11.09;73.15;101850.78;5018700;28;20061;-67
2022/02/22 10:01:58;;;;;;;41.10;7.50;;;;;;;11.01;73.39;101838.47;5031169;28;20064;-68
2022/02/22 10:04:26;;;;;;;46.45;9.45;;;;;;;11.18;73.40;101835.25;5017022;28;20046;-67
2022/02/22 10:07:02;;;;;;;35.55;7.78;;;;;;;11.29;73.15;101837.66;5019904;28;20053;-67
2022/02/22 10:09:30;;;;;;;35.15;7.10;;;;;;;11.23;72.96;101826.94;5034198;28;20045;-68
2022/02/22 10:11:57;;;;;;;39.67;7.25;;;;;;;11.29;72.39;101832.13;5037829;28;20060;-67
2022/02/22 10:14:27;;;;;;;34.78;6.30;;;;;;;11.30;73.09;101835.69;5016072;28;20046;-67
2022/02/22 10:16:56;;;;;;;30.52;5.78;;;;;;;11.31;73.53;101827.13;5014801;28;20050;-68
2022/02/22 10:19:28;;;;;;;37.97;6.80;;;;;;;11.52;73.03;101824.16;5011256;28;20627;-66
2022/02/22 10:21:57;;;;;;;25.05;5.15;;;;;;;11.75;72.11;101815.91;5025281;28;20056;-69
2022/02/22 10:24:27;;;;;;;29.75;5.38;;;;;;;11.57;72.19;101830.47;5017881;28;20049;-67
2022/02/22 10:27:00;;;;;;;32.35;5.43;;;;;;;11.94;71.39;101816.75;5017207;28;20049;-69
2022/02/22 10:29:29;;;;;;;33.30;6.00;;;;;;;11.82;71.14;101824.66;5036523;28;20049;-69
2022/02/22 10:31:57;;;;;;;32.22;5.85;;;;;;;11.55;72.88;101840.97;5017257;28;20046;-67
2022/02/22 10:34:34;;;;;;;33.25;6.82;;;;;;;11.65;72.68;101848.31;5020341;28;20050;-68
2022/02/22 10:37:01;;;;;;;27.70;5.30;;;;;;;11.50;72.79;101856.75;5003747;28;20520;-68
2022/02/22 10:39:29;;;;;;;28.83;6.15;;;;;;;11.73;72.45;101864.25;5014018;28;20416;-68
2022/02/22 10:41:57;;;;;;;30.13;7.15;;;;;;;11.70;72.98;101862.09;5017230;28;20058;-69
2022/02/22 10:44:29;;;;;;;31.95;5.93;;;;;;;11.76;72.68;101877.47;5027525;28;20050;-67
2022/02/22 10:46:58;;;;;;;27.80;5.40;;;;;;;11.46;73.36;101872.22;5022173;28;20054;-68
2022/02/22 10:49:31;;;;;;;29.50;5.00;;;;;;;11.21;74.52;101879.63;5029624;28;20440;-68
2022/02/22 10:52:04;;;;;;;21.13;5.18;;;;;;;11.35;74.65;101863.22;5016222;28;20046;-68
2022/02/22 10:54:32;;;;;;;29.45;5.28;;;;;;;11.39;74.89;101853.25;5027857;28;20050;-68
2022/02/22 10:57:00;;;;;;;29.23;5.80;;;;;;;11.28;76.04;101844.25;5022340;28;20523;-68
2022/02/22 10:59:31;;;;;;;22.98;5.10;;;;;;;11.60;76.12;101851.94;5030339;28;20054;-67
2022/02/22 11:02:00;;;;;;;25.88;5.40;;;;;;;11.59;76.39;101843.97;5011343;28;20057;-68
2022/02/22 11:04:31;;;;;;;23.35;4.97;;;;;;;11.55;76.58;101845.66;5015012;28;20481;-67
2022/02/22 11:06:59;;;;;;;21.73;4.35;;;;;;;11.41;77.20;101852.97;5020541;28;20068;-68
2022/02/22 11:09:27;;;;;;;24.13;4.07;;;;;;;11.63;76.25;101858.81;5032900;28;20041;-68
2022/02/22 11:12:15;;;;;;;19.30;5.22;;;;;;;11.94;75.02;101849.91;5022940;28;20049;-68
2022/02/22 11:14:46;;;;;;;16.02;4.80;;;;;;;12.00;74.74;101836.84;5013834;28;20045;-68
2022/02/22 11:17:19;;;;;;;28.33;5.85;;;;;;;11.91;74.58;101835.88;5029717;28;20489;-67
2022/02/22 11:19:50;;;;;;;19.92;5.10;;;;;;;11.70;75.16;101821.50;5028675;28;20049;-68
2022/02/22 11:22:23;;;;;;;18.55;4.53;;;;;;;11.73;75.52;101823.69;5017327;28;20856;-68
2022/02/22 11:24:54;;;;;;;39.95;14.50;;;;;;;11.47;76.84;101833.34;5016922;28;20041;-69